Wilmington, NC (28409)

8:34 AM EDT on May 25, 2017 (GMT -0400)
Masonboro Forest | | Change Station
Active Advisory: Beach Hazard Statement

Elev 25 ft 34.17 °N, 77.88 °W | Updated 2 minutes ago

Clear
Clear
73.1 °F
Feels Like 74 °F
N
3.0
Wind Variable Wind from SW

Today
High -- | Low -- °F
--% Chance of Precip.
Yesterday
High -- | Low -- °F
Precip. -- in
Pressure 29.59 in
Visibility 10.0 miles
Clouds Few 2300 ft
Heat Index 74 °F
Dew Point 64 °F
Humidity 75%
Rainfall 0.00 in
Snow Depth Not available.
6:03 AM 8:13 PM
Waning Crescent, 0% visible
METAR KILM 251153Z 23014KT 10SM FEW023 22/19 A2959 RMK AO2 SLP020 70010 T02220189 10233 20206 51015
Pressure 29.59 in
Visibility 10.0 miles
Clouds Few 2300 ft
Heat Index 74 °F
Dew Point 64 °F
Humidity 75%
Rainfall 0.00 in
Snow Depth Not available.
6:03 AM 8:13 PM
Waning Crescent, 0% visible
METAR KILM 251153Z 23014KT 10SM FEW023 22/19 A2959 RMK AO2 SLP020 70010 T02220189 10233 20206 51015

Get Your Daily Forecast Email!

Thanks for signing up!

Be on the lookout for a verification email in your inbox.

You'll start receiving severe weather alerts in your inbox..

×

10-Day Weather Forecast

Almanac

Astronomy

May. 25, 2017 Rise Set
Actual Time
Civil Twilight
Nautical Twilight
Astronomical Twilight
Moon
Length of Visible Light
Length of Day
Tomorrow will be .
, % of the Moon is Illuminated

Today's Extremes

State Highs State Lows

Community

WunderPhotos

Category 6

Welcome to Category 6. This is the collective home for Weather Underground's featured writeups by Dr. Jeff Masters (right), Bob Henson (left), Chris Burt, and other regular contributors.

Nearby

Air Quality

  Air Quality AQ Index Pollutant
Not available.

Snow Depth

Station Depth Elevation

Earthquake Activity

City Distance Mag. Time & Date
Minimum magnitude displayed is 2.5.

Coastal Water Temperatures

Place Temperature

Stations

Nearby Weather Stations

Station Location Temp. Windchill Dew Point Humidity Wind Precip. Elev Updated Type
                   

Watches & Warnings

Beach Hazard Statement
Issued: 4:55 AM EDT May. 25, 2017 – National Weather Service

... Beach hazards statement remains in effect through this evening...

Strong southwesterly winds will continue to produce a strong south
to north longshore current along the beaches in Pender... New
Hanover... Horry... and Georgetown counties through this evening.


7